Time;durP1;ratioP1;P1;durP2;ratioP2;P2;SDS_P1;SDS_P2;PMS_P1;PMS_P2;Temp;Humidity;BMP_temperature;BMP_pressure;BME280_temperature;BME280_humidity;BME280_pressure;Samples;Min_cycle;Max_cycle;Signal;HPM_P1;HPM_P2
2021/11/14 00:00:42;;;;;;;;;13.25;12.25;;;;;21.89;100.00;101309.97;5106088;27;48222;-86
2021/11/14 00:03:08;;;;;;;;;14.75;11.00;;;;;21.93;100.00;101311.34;5127144;27;45892;-87
2021/11/14 00:05:35;;;;;;;;;12.75;8.75;;;;;21.84;100.00;101312.31;5124596;27;45255;-87
2021/11/14 00:08:01;;;;;;;;;14.00;10.00;;;;;21.62;100.00;101314.59;5105794;27;45381;-87
2021/11/14 00:10:27;;;;;;;;;14.75;12.75;;;;;21.60;100.00;101315.75;5126684;27;47499;-87
2021/11/14 00:12:54;;;;;;;;;9.75;9.75;;;;;21.73;100.00;101318.00;5119292;27;45522;-87
2021/11/14 00:15:19;;;;;;;;;15.00;12.25;;;;;21.74;100.00;101314.31;5110808;27;45459;-87
2021/11/14 00:17:45;;;;;;;;;9.75;9.25;;;;;21.82;100.00;101322.41;5123357;27;45388;-87
2021/11/14 00:20:11;;;;;;;;;11.25;10.75;;;;;21.60;100.00;101316.59;5122952;27;45288;-88
2021/11/14 00:22:36;;;;;;;;;11.25;11.25;;;;;21.52;100.00;101313.00;5110424;27;45592;-87
2021/11/14 00:25:05;;;;;;;;;13.00;11.00;;;;;21.50;100.00;101315.00;5104475;27;45471;-87
2021/11/14 00:27:31;;;;;;;;;15.25;11.75;;;;;21.44;100.00;101311.13;5122557;27;45564;-87
2021/11/14 00:29:56;;;;;;;;;15.25;12.25;;;;;21.48;100.00;101312.50;5117142;27;46168;-88
2021/11/14 00:32:22;;;;;;;;;15.25;11.75;;;;;21.48;100.00;101317.03;5123125;27;45418;-88
2021/11/14 00:34:50;;;;;;;;;10.75;9.75;;;;;21.45;100.00;101315.50;5123390;27;45291;-88
2021/11/14 00:37:16;;;;;;;;;13.50;13.25;;;;;21.52;100.00;101307.66;5122985;27;45301;-89
2021/11/14 00:39:41;;;;;;;;;14.50;12.50;;;;;21.59;100.00;101317.59;5127354;27;45312;-86
2021/11/14 00:42:07;;;;;;;;;16.25;11.00;;;;;21.50;100.00;101320.38;5135122;27;45299;-87
2021/11/14 00:44:33;;;;;;;;;13.00;13.00;;;;;21.46;100.00;101316.34;5125941;27;45255;-87
2021/11/14 00:46:59;;;;;;;;;12.50;11.00;;;;;21.49;100.00;101319.53;5125752;27;45413;-87
2021/11/14 00:49:24;;;;;;;;;14.25;11.25;;;;;21.45;100.00;101323.56;5124550;27;45920;-87
2021/11/14 00:51:50;;;;;;;;;17.50;12.00;;;;;21.58;100.00;101315.91;5133520;27;45423;-87
2021/11/14 00:54:15;;;;;;;;;13.25;11.25;;;;;21.54;100.00;101319.91;5104272;27;45370;-87
2021/11/14 00:56:41;;;;;;;;;13.25;11.00;;;;;21.60;100.00;101313.06;5103481;27;45366;-88
2021/11/14 00:59:07;;;;;;;;;9.75;9.50;;;;;21.59;100.00;101312.22;5122605;27;46241;-87
2021/11/14 01:01:32;;;;;;;;;14.00;12.50;;;;;21.76;100.00;101306.94;5138044;27;45462;-87
2021/11/14 01:03:59;;;;;;;;;11.50;11.25;;;;;21.63;100.00;101315.44;5122084;27;45276;-87
2021/11/14 01:06:25;;;;;;;;;13.25;12.00;;;;;21.70;100.00;101311.09;5114292;27;45422;-87
2021/11/14 01:08:51;;;;;;;;;11.50;10.25;;;;;21.48;100.00;101320.56;5124084;27;45500;-88
2021/11/14 01:11:16;;;;;;;;;11.75;11.75;;;;;21.55;100.00;101313.56;5104173;27;45373;-87
2021/11/14 01:13:42;;;;;;;;;15.50;11.75;;;;;21.53;100.00;101307.47;5120767;27;45231;-87
2021/11/14 01:16:14;;;;;;;;;15.50;12.00;;;;;21.57;100.00;101318.78;5108192;27;45516;-87
2021/11/14 01:18:40;;;;;;;;;14.75;10.00;;;;;21.65;100.00;101313.44;5125474;27;48380;-87
2021/11/14 01:21:10;;;;;;;;;13.50;10.50;;;;;21.76;100.00;101321.19;5107416;27;45437;-88
2021/11/14 01:23:36;;;;;;;;;17.00;12.75;;;;;21.60;100.00;101315.75;5105986;27;45428;-88
2021/11/14 01:26:03;;;;;;;;;11.25;10.00;;;;;21.69;100.00;101320.16;5108944;27;45354;-88
2021/11/14 01:28:28;;;;;;;;;11.75;11.75;;;;;21.91;100.00;101321.41;5108536;27;47190;-87
2021/11/14 01:30:55;;;;;;;;;15.00;7.00;;;;;21.53;100.00;101317.38;5101929;27;45515;-88
2021/11/14 01:33:25;;;;;;;;;15.50;11.50;;;;;21.52;100.00;101321.06;5113265;27;45263;-88
2021/11/14 01:35:53;;;;;;;;;12.50;10.50;;;;;21.32;100.00;101325.00;5098789;27;45654;-89
2021/11/14 01:38:19;;;;;;;;;12.75;10.00;;;;;21.34;100.00;101318.47;5116661;27;46955;-87
2021/11/14 01:40:54;;;;;;;;;12.50;11.25;;;;;21.48;100.00;101322.41;5127616;27;45455;-88
2021/11/14 01:43:24;;;;;;;;;9.75;9.25;;;;;21.60;100.00;101324.66;5115906;27;45600;-88
2021/11/14 01:45:51;;;;;;;;;13.00;11.00;;;;;21.56;100.00;101315.25;5105416;27;45618;-88
2021/11/14 01:48:17;;;;;;;;;12.25;10.25;;;;;21.48;100.00;101323.25;5115501;27;47270;-87
2021/11/14 01:50:43;;;;;;;;;10.00;9.00;;;;;21.43;100.00;101322.88;5130910;27;45203;-88
2021/11/14 01:53:09;;;;;;;;;13.50;12.00;;;;;21.43;100.00;101320.19;5133785;27;45411;-88
2021/11/14 01:55:41;;;;;;;;;10.00;10.00;;;;;21.45;100.00;101320.88;5135989;27;45528;-88
2021/11/14 01:58:08;;;;;;;;;10.50;10.50;;;;;21.46;100.00;101325.25;5125403;27;45494;-88
2021/11/14 02:00:48;;;;;;;;;11.50;9.25;;;;;21.51;100.00;101327.44;5125898;27;45415;-88
2021/11/14 02:03:13;;;;;;;;;13.50;11.50;;;;;21.34;100.00;101329.22;5122605;27;44928;-88
2021/11/14 02:05:39;;;;;;;;;16.75;10.00;;;;;21.36;100.00;101331.75;5104140;27;45630;-87
2021/11/14 02:08:07;;;;;;;;;13.00;11.00;;;;;21.36;100.00;101329.91;5104945;27;47079;-87
2021/11/14 02:10:34;;;;;;;;;10.50;10.00;;;;;21.36;100.00;101326.38;5129422;27;45499;-87
2021/11/14 02:13:00;;;;;;;;;10.25;9.00;;;;;21.33;100.00;101330.22;5103793;27;45403;-88
2021/11/14 02:15:27;;;;;;;;;9.25;7.00;;;;;21.38;100.00;101338.66;5123041;27;45411;-88
2021/11/14 02:17:52;;;;;;;;;9.00;9.00;;;;;21.38;100.00;101335.13;5103121;27;48268;-88
2021/11/14 02:20:20;;;;;;;;;12.00;9.00;;;;;21.46;100.00;101333.31;5122681;27;45440;-88
2021/11/14 02:22:46;;;;;;;;;12.00;10.00;;;;;21.41;100.00;101334.78;5121412;27;45346;-88
2021/11/14 02:25:14;;;;;;;;;5.25;5.25;;;;;21.45;100.00;101333.47;5121598;27;45974;-89
2021/11/14 02:27:42;;;;;;;;;12.25;9.25;;;;;21.39;100.00;101334.97;5103744;27;46993;-88
2021/11/14 02:30:10;;;;;;;;;10.50;10.50;;;;;21.50;100.00;101336.50;5121582;27;45771;-88
2021/11/14 02:32:36;;;;;;;;;12.75;10.75;;;;;21.40;100.00;101330.41;5122129;27;45452;-88
2021/11/14 02:35:01;;;;;;;;;13.50;9.75;;;;;21.48;100.00;101335.84;5106797;27;45397;-88
2021/11/14 02:37:27;;;;;;;;;12.00;9.50;;;;;21.51;100.00;101332.81;5105188;27;47488;-88
2021/11/14 02:39:52;;;;;;;;;15.00;9.00;;;;;21.49;100.00;101329.44;5125750;27;45856;-88
2021/11/14 02:42:18;;;;;;;;;13.50;11.75;;;;;21.56;100.00;101327.84;5126555;27;45462;-88
2021/11/14 02:44:43;;;;;;;;;12.25;10.00;;;;;21.60;100.00;101326.50;5149987;27;45168;-88
2021/11/14 02:47:09;;;;;;;;;11.75;11.75;;;;;21.64;100.00;101326.03;5125178;27;45160;-88
2021/11/14 02:49:34;;;;;;;;;12.00;11.00;;;;;21.77;100.00;101324.72;5134269;27;45328;-89
2021/11/14 02:52:00;;;;;;;;;13.00;10.50;;;;;21.67;100.00;101327.53;5105368;27;45165;-89
2021/11/14 02:54:25;;;;;;;;;11.00;9.25;;;;;21.59;100.00;101325.66;5135474;27;45291;-88
2021/11/14 02:56:51;;;;;;;;;13.50;10.00;;;;;21.52;100.00;101326.44;5132422;27;46518;-88
2021/11/14 02:59:16;;;;;;;;;8.00;7.00;;;;;21.38;100.00;101324.38;5137910;27;44703;-88
2021/11/14 03:01:46;;;;;;;;;14.25;10.75;;;;;21.37;100.00;101323.53;5134293;27;44757;-88
2021/11/14 03:04:20;;;;;;;;;13.00;10.00;;;;;21.43;100.00;101322.88;5156903;27;45393;-88
2021/11/14 03:06:48;;;;;;;;;14.50;11.00;;;;;21.39;100.00;101321.53;5142447;27;45391;-88
2021/11/14 03:09:14;;;;;;;;;14.50;10.25;;;;;21.28;100.00;101316.44;5140299;27;45362;-88
2021/11/14 03:11:40;;;;;;;;;9.75;9.25;;;;;21.17;100.00;101322.91;5148137;27;44747;-89
2021/11/14 03:14:06;;;;;;;;;8.75;8.75;;;;;21.11;100.00;101317.28;5099791;27;45522;-88
2021/11/14 03:16:33;;;;;;;;;14.50;10.25;;;;;21.17;100.00;101322.91;5124970;27;46286;-89
2021/11/14 03:18:59;;;;;;;;;15.75;9.50;;;;;21.28;100.00;101319.13;5120109;27;45956;-88
2021/11/14 03:21:25;;;;;;;;;9.75;8.25;;;;;21.10;100.00;101327.19;5124133;27;45325;-88
2021/11/14 03:23:51;;;;;;;;;10.50;7.50;;;;;21.09;100.00;101325.50;5116244;27;45422;-88
2021/11/14 03:26:17;;;;;;;;;10.00;7.50;;;;;21.12;100.00;101324.34;5116844;27;47427;-87
2021/11/14 03:28:44;;;;;;;;;8.50;8.50;;;;;21.22;100.00;101320.56;5140949;27;45398;-88
2021/11/14 03:31:10;;;;;;;;;9.50;8.25;;;;;21.23;100.00;101324.09;5137247;27;45452;-88
2021/11/14 03:33:36;;;;;;;;;10.50;10.00;;;;;21.16;100.00;101331.09;5121927;27;45366;-88
2021/11/14 03:36:08;;;;;;;;;11.00;10.00;;;;;21.33;100.00;101324.84;5119496;27;47035;-88
2021/11/14 03:38:55;;;;;;;;;10.75;9.00;;;;;21.41;100.00;101332.09;5123523;27;45745;-88
2021/11/14 03:41:24;;;;;;;;;10.00;10.00;;;;;21.37;100.00;101326.22;5124204;27;45256;-89
2021/11/14 03:43:52;;;;;;;;;15.25;10.25;;;;;21.38;100.00;101330.59;5124018;27;45444;-88
2021/11/14 03:46:18;;;;;;;;;6.75;6.75;;;;;21.52;100.00;101332.66;5110556;27;46285;-88
2021/11/14 03:48:47;;;;;;;;;11.25;9.00;;;;;21.43;100.00;101330.94;5109502;27;45321;-88
2021/11/14 03:51:14;;;;;;;;;11.25;8.75;;;;;21.47;100.00;101335.00;5109962;27;45547;-89
2021/11/14 03:53:41;;;;;;;;;12.50;10.25;;;;;21.48;100.00;101325.09;5107988;27;45323;-88
2021/11/14 03:56:07;;;;;;;;;11.75;9.00;;;;;21.52;100.00;101329.97;5128546;27;45469;-88
2021/11/14 03:58:33;;;;;;;;;11.00;6.25;;;;;21.59;100.00;101332.88;5118869;27;45575;-88
2021/11/14 04:01:01;;;;;;;;;7.50;7.00;;;;;21.35;100.00;101328.22;5095999;27;45345;-88
2021/11/14 04:03:29;;;;;;;;;13.75;10.25;;;;;21.26;100.00;101334.53;5099891;27;45336;-88
2021/11/14 04:05:54;;;;;;;;;14.00;10.00;;;;;21.18;100.00;101326.44;5117104;27;46424;-88
2021/11/14 04:08:24;;;;;;;;;9.75;8.25;;;;;21.26;100.00;101330.00;5133665;27;45479;-88
2021/11/14 04:10:52;;;;;;;;;13.50;10.75;;;;;20.92;100.00;101327.22;5120570;27;45222;-88
2021/11/14 04:13:18;;;;;;;;;9.50;9.00;;;;;20.85;100.00;101330.69;5126634;27;45587;-88
2021/11/14 04:15:45;;;;;;;;;11.75;10.00;;;;;20.88;100.00;101325.84;5125774;27;45542;-88
2021/11/14 04:18:11;;;;;;;;;10.75;9.25;;;;;20.87;100.00;101326.00;5133603;27;45616;-88
2021/11/14 04:20:39;;;;;;;;;9.50;8.50;;;;;21.07;100.00;101332.03;5114527;27;45438;-88
2021/11/14 04:23:05;;;;;;;;;10.00;10.00;;;;;20.86;100.00;101324.31;5126529;27;45396;-88
2021/11/14 04:25:31;;;;;;;;;11.75;9.25;;;;;20.89;100.00;101316.78;5135646;27;47212;-88
2021/11/14 04:27:57;;;;;;;;;9.50;9.50;;;;;20.96;100.00;101321.53;5126222;27;45321;-88
2021/11/14 04:30:23;;;;;;;;;6.50;6.50;;;;;21.07;100.00;101319.44;5119699;27;45437;-88
2021/11/14 04:32:49;;;;;;;;;8.50;7.25;;;;;21.04;100.00;101316.22;5124924;27;45390;-88
2021/11/14 04:35:15;;;;;;;;;10.00;7.00;;;;;21.03;100.00;101314.56;5127262;27;46076;-89
2021/11/14 04:37:40;;;;;;;;;11.25;6.25;;;;;20.98;100.00;101322.22;5114924;27;45518;-87
2021/11/14 04:40:07;;;;;;;;;11.50;6.50;;;;;21.01;100.00;101316.56;5111943;27;45429;-87
2021/11/14 04:42:33;;;;;;;;;11.50;8.75;;;;;21.06;100.00;101316.91;5132931;27;46388;-88
2021/11/14 04:44:59;;;;;;;;;10.00;8.75;;;;;21.00;100.00;101322.91;5106578;27;47823;-87
2021/11/14 04:47:24;;;;;;;;;12.00;6.00;;;;;21.11;100.00;101322.66;5132497;27;45239;-87
2021/11/14 04:49:49;;;;;;;;;12.00;9.00;;;;;21.19;100.00;101328.13;5138641;27;45252;-87
2021/11/14 04:52:15;;;;;;;;;11.00;9.25;;;;;21.20;100.00;101335.19;5103401;27;45214;-88
2021/11/14 04:54:40;;;;;;;;;15.75;10.50;;;;;21.18;100.00;101326.44;5104152;27;47273;-88
2021/11/14 04:57:06;;;;;;;;;12.25;8.50;;;;;21.06;100.00;101336.56;5106772;27;45347;-87
2021/11/14 04:59:31;;;;;;;;;10.75;9.25;;;;;21.09;100.00;101325.50;5135240;27;45394;-88
2021/11/14 05:01:57;;;;;;;;;13.00;9.00;;;;;21.10;100.00;101329.03;5120753;27;45365;-87
2021/11/14 05:04:22;;;;;;;;;13.25;5.25;;;;;21.09;100.00;101325.50;5122169;27;46188;-88
2021/11/14 05:06:48;;;;;;;;;10.75;9.50;;;;;21.16;100.00;101323.03;5126923;27;45395;-88
2021/11/14 05:09:13;;;;;;;;;12.00;7.00;;;;;21.03;100.00;101327.97;5107487;27;45441;-87
2021/11/14 05:11:39;;;;;;;;;13.25;9.00;;;;;21.03;100.00;101327.97;5128732;27;45353;-88
2021/11/14 05:14:04;;;;;;;;;11.75;8.75;;;;;21.13;100.00;101334.06;5108770;27;46634;-88
2021/11/14 05:16:30;;;;;;;;;11.00;7.50;;;;;21.14;100.00;101325.00;5116782;27;45415;-87
2021/11/14 05:18:56;;;;;;;;;9.75;9.00;;;;;21.32;100.00;101331.22;5122502;27;46777;-88
2021/11/14 05:21:22;;;;;;;;;11.50;6.75;;;;;21.15;100.00;101324.88;5122528;27;45468;-88
2021/11/14 05:23:47;;;;;;;;;11.00;9.00;;;;;21.05;100.00;101329.50;5122587;27;45411;-89
2021/11/14 05:26:13;;;;;;;;;8.00;5.00;;;;;20.99;100.00;101327.44;5103572;27;45243;-88
2021/11/14 05:28:39;;;;;;;;;12.50;10.00;;;;;21.02;100.00;101315.56;5129175;27;45461;-89
2021/11/14 05:31:04;;;;;;;;;10.00;9.00;;;;;21.13;100.00;101321.50;5126879;27;45467;-89
2021/11/14 05:33:30;;;;;;;;;8.50;8.50;;;;;21.06;100.00;101314.22;5129769;27;45358;-87
2021/11/14 05:35:56;;;;;;;;;8.00;7.50;;;;;21.00;100.00;101325.59;5112474;27;45278;-88
2021/11/14 05:38:21;;;;;;;;;11.50;8.75;;;;;20.97;100.00;101324.06;5129639;27;45359;-87
2021/11/14 05:40:47;;;;;;;;;7.75;7.00;;;;;21.09;100.00;101330.88;5132407;27;45247;-88
2021/11/14 05:43:13;;;;;;;;;11.75;9.00;;;;;21.23;100.00;101322.25;5125557;27;46067;-88
2021/11/14 05:45:39;;;;;;;;;12.25;7.00;;;;;21.21;100.00;101324.25;5112068;27;44900;-88
2021/11/14 05:48:05;;;;;;;;;10.00;7.00;;;;;21.20;100.00;101327.97;5124058;27;45481;-88
2021/11/14 05:50:30;;;;;;;;;8.25;5.75;;;;;21.14;100.00;101323.19;5118774;27;45522;-87
2021/11/14 05:52:56;;;;;;;;;9.25;8.75;;;;;21.26;100.00;101337.22;5126065;27;45476;-88
2021/11/14 05:55:22;;;;;;;;;11.75;9.00;;;;;21.23;100.00;101332.16;5124629;27;45403;-88
2021/11/14 06:00:30;;;;;;;;;12.50;8.50;;;;;21.45;100.00;101338.84;5120254;27;45563;-88
2021/11/14 06:03:41;;;;;;;;;10.00;9.00;;;;;21.20;100.00;101329.81;5114066;27;47381;-88
2021/11/14 06:05:45;;;;;;;;;10.25;9.25;;;;;21.17;100.00;101333.66;5113131;27;45533;-88
2021/11/14 06:08:12;;;;;;;;;10.00;8.25;;;;;21.34;100.00;101348.03;5116391;27;45188;-88
2021/11/14 06:10:38;;;;;;;;;9.00;8.50;;;;;21.49;100.00;101338.34;5122453;27;45621;-88
2021/11/14 06:13:04;;;;;;;;;14.50;11.25;;;;;21.40;100.00;101342.00;5102772;27;46443;-88
2021/11/14 06:15:30;;;;;;;;;8.75;8.75;;;;;21.31;100.00;101340.25;5116525;27;45539;-88
2021/11/14 06:17:56;;;;;;;;;6.50;6.00;;;;;21.19;100.00;101346.94;5103379;27;45516;-88
2021/11/14 06:20:22;;;;;;;;;11.00;7.00;;;;;21.40;100.00;101350.06;5123159;27;45640;-88
2021/11/14 06:22:48;;;;;;;;;10.00;8.00;;;;;21.62;100.00;101354.91;5113069;27;46231;-88
2021/11/14 06:25:14;;;;;;;;;9.75;6.00;;;;;21.37;100.00;101353.09;5132647;27;45316;-89
2021/11/14 06:27:40;;;;;;;;;8.50;7.25;;;;;21.34;100.00;101356.09;5134534;27;45498;-88
2021/11/14 06:30:10;;;;;;;;;7.25;6.75;;;;;21.62;100.00;101360.28;5132061;27;45357;-88
2021/11/14 06:32:35;;;;;;;;;5.00;5.00;;;;;21.27;100.00;101360.41;5135094;27;45400;-88
2021/11/14 06:35:01;;;;;;;;;7.75;6.00;;;;;21.45;100.00;101357.66;5121072;27;45524;-88
2021/11/14 06:37:27;;;;;;;;;5.50;4.75;;;;;21.37;100.00;101360.31;5126238;27;45326;-88
2021/11/14 06:39:53;;;;;;;;;6.25;4.75;;;;;21.53;100.00;101366.63;5107083;27;45439;-88
2021/11/14 06:42:18;;;;;;;;;8.25;6.00;;;;;21.53;100.00;101365.75;5126613;27;45222;-88
2021/11/14 06:44:44;;;;;;;;;9.00;6.00;;;;;21.43;100.00;101370.41;5113289;27;45293;-88
2021/11/14 06:47:11;;;;;;;;;6.00;5.50;;;;;21.36;100.00;101372.91;5135334;27;45486;-88
2021/11/14 06:49:36;;;;;;;;;9.25;6.50;;;;;21.33;100.00;101372.34;5114587;27;45353;-88
2021/11/14 06:52:02;;;;;;;;;4.00;4.00;;;;;21.47;100.00;101374.47;5105638;27;47976;-88
2021/11/14 06:54:27;;;;;;;;;8.75;5.25;;;;;21.34;100.00;101374.88;5117046;27;45356;-87
2021/11/14 06:56:53;;;;;;;;;9.25;6.75;;;;;21.36;100.00;101372.91;5121465;27;45514;-88
2021/11/14 06:59:18;;;;;;;;;9.25;7.00;;;;;21.64;100.00;101374.41;5136375;27;45420;-88
2021/11/14 07:01:43;;;;;;;;;7.25;6.75;;;;;21.50;100.00;101379.50;5120225;27;45452;-88
2021/11/14 07:04:09;;;;;;;;;6.00;4.50;;;;;21.48;100.00;101385.06;5126759;27;45489;-88
2021/11/14 07:06:34;;;;;;;;;7.25;7.00;;;;;21.63;100.00;101390.69;5125549;27;45489;-89
2021/11/14 07:09:00;;;;;;;;;7.75;5.50;;;;;21.22;100.00;101397.63;5133832;27;45395;-88
2021/11/14 07:11:25;;;;;;;;;6.00;5.00;;;;;21.23;100.00;101391.25;5093897;27;48288;-88
2021/11/14 07:13:50;;;;;;;;;6.25;6.25;;;;;21.27;100.00;101395.31;5108966;27;45924;-88
2021/11/14 07:16:16;;;;;;;;;8.00;6.00;;;;;21.11;100.00;101401.41;5120692;27;45382;-88
2021/11/14 07:18:41;;;;;;;;;8.50;6.00;;;;;21.08;100.00;101404.38;5134823;27;47065;-88
2021/11/14 07:21:07;;;;;;;;;5.25;5.25;;;;;21.30;100.00;101410.31;5129975;27;45519;-88
2021/11/14 07:23:33;;;;;;;;;7.25;6.25;;;;;21.15;100.00;101401.91;5130960;27;45699;-88
2021/11/14 07:25:58;;;;;;;;;5.75;5.00;;;;;21.36;100.00;101410.50;5121315;27;45223;-89
2021/11/14 07:28:24;;;;;;;;;9.25;9.00;;;;;21.23;100.00;101408.22;5128143;27;45311;-89
2021/11/14 07:30:49;;;;;;;;;10.00;6.00;;;;;21.28;100.00;101416.66;5119703;27;47968;-88
2021/11/14 07:33:15;;;;;;;;;3.75;2.00;;;;;21.22;100.00;101417.28;5133985;27;45312;-88
2021/11/14 07:35:40;;;;;;;;;12.50;7.50;;;;;21.51;100.00;101425.03;5111921;27;45688;-88
2021/11/14 07:38:06;;;;;;;;;10.50;9.50;;;;;21.52;100.00;101420.50;5145076;27;45472;-89
2021/11/14 07:40:32;;;;;;;;;6.00;6.00;;;;;21.52;100.00;101423.19;5114725;27;48276;-88
2021/11/14 07:42:58;;;;;;;;;8.00;7.25;;;;;21.17;100.00;101426.78;5119751;27;45584;-88
2021/11/14 07:45:27;;;;;;;;;8.75;6.75;;;;;21.27;100.00;101427.56;5129136;27;45489;-88
2021/11/14 07:47:53;;;;;;;;;8.50;7.00;;;;;21.33;100.00;101423.41;5137662;27;45321;-88
2021/11/14 07:50:22;;;;;;;;;9.75;6.75;;;;;21.47;100.00;101433.59;5115355;27;45324;-89
2021/11/14 07:52:48;;;;;;;;;7.25;6.75;;;;;21.36;100.00;101429.31;5105896;27;45427;-89
2021/11/14 07:55:14;;;;;;;;;9.00;9.00;;;;;21.23;100.00;101437.78;5126910;27;45364;-89
2021/11/14 07:57:44;;;;;;;;;7.00;5.75;;;;;21.61;100.00;101449.13;5103426;27;45716;-88
2021/11/14 08:00:17;;;;;;;;;10.75;6.25;;;;;21.75;100.00;101445.88;5114720;27;45499;-89
2021/11/14 08:02:43;;;;;;;;;7.50;7.00;;;;;21.61;100.00;101444.59;5122726;27;45520;-88
2021/11/14 08:05:09;;;;;;;;;10.50;5.00;;;;;21.66;100.00;101446.84;5105134;27;45352;-88
2021/11/14 08:07:36;;;;;;;;;8.50;6.25;;;;;21.65;100.00;101450.53;5137389;27;45479;-88
2021/11/14 08:10:02;;;;;;;;;9.75;6.00;;;;;21.75;100.00;101450.41;5113251;27;47288;-88
2021/11/14 08:12:27;;;;;;;;;9.00;7.00;;;;;21.74;100.00;101457.63;5109100;27;45747;-88
2021/11/14 08:14:53;;;;;;;;;11.00;9.00;;;;;21.49;100.00;101445.84;5136454;27;45432;-88
2021/11/14 08:17:18;;;;;;;;;10.50;8.25;;;;;21.55;100.00;101464.06;5138326;27;45471;-88
2021/11/14 08:19:44;;;;;;;;;7.50;6.50;;;;;21.58;100.00;101457.50;5133988;27;45497;-88
2021/11/14 08:22:10;;;;;;;;;12.00;8.50;;;;;21.78;100.00;101455.44;5128898;27;45403;-88
2021/11/14 08:24:35;;;;;;;;;9.25;7.00;;;;;21.83;100.00;101451.31;5100307;27;45350;-88
2021/11/14 08:27:01;;;;;;;;;8.50;8.50;;;;;21.81;100.00;101455.16;5106186;27;45748;-88
2021/11/14 08:29:26;;;;;;;;;11.25;8.25;;;;;21.64;100.00;101455.06;5124443;27;46223;-88
2021/11/14 08:31:52;;;;;;;;;10.00;6.00;;;;;21.67;100.00;101459.25;5134950;27;45391;-88
2021/11/14 08:34:17;;;;;;;;;11.75;9.50;;;;;21.71;100.00;101462.47;5110670;27;45436;-88
2021/11/14 08:36:43;;;;;;;;;12.50;10.50;;;;;22.00;100.00;101452.25;5141252;27;45483;-88
2021/11/14 08:39:08;;;;;;;;;10.25;7.50;;;;;21.80;100.00;101453.44;5113317;27;46073;-89
2021/11/14 08:41:33;;;;;;;;;7.75;6.75;;;;;21.99;100.00;101451.41;5131749;27;45214;-88
2021/11/14 08:43:59;;;;;;;;;7.50;7.50;;;;;22.05;100.00;101452.59;5128557;27;45143;-87
2021/11/14 08:46:25;;;;;;;;;10.50;7.25;;;;;22.02;100.00;101452.94;5140197;27;45443;-88
2021/11/14 08:48:50;;;;;;;;;15.50;8.50;;;;;22.05;100.00;101449.06;5124128;27;45775;-88
2021/11/14 08:51:17;;;;;;;;;5.75;5.00;;;;;22.09;100.00;101459.38;5143232;27;45347;-88
2021/11/14 08:53:42;;;;;;;;;8.25;7.50;;;;;22.18;100.00;101453.03;5135793;27;45418;-88
2021/11/14 08:56:08;;;;;;;;;4.50;4.25;;;;;22.06;100.00;101457.00;5107684;27;45535;-88
2021/11/14 08:58:37;;;;;;;;;7.00;7.00;;;;;22.04;100.00;101459.00;5104149;27;47122;-88
2021/11/14 09:01:06;;;;;;;;;7.00;5.00;;;;;22.16;100.00;101457.72;5113103;27;45502;-88
2021/11/14 09:03:31;;;;;;;;;11.50;7.25;;;;;22.39;100.00;101445.38;5108287;27;45272;-88
2021/11/14 09:05:57;;;;;;;;;10.50;6.50;;;;;22.58;100.00;101452.28;5131148;27;45408;-88
2021/11/14 09:08:23;;;;;;;;;7.00;6.00;;;;;22.46;100.00;101455.47;5120388;27;47961;-89
2021/11/14 09:10:48;;;;;;;;;6.25;6.25;;;;;22.69;100.00;101451.16;5106629;27;45463;-88
2021/11/14 09:13:15;;;;;;;;;9.75;6.00;;;;;22.68;100.00;101455.69;5131243;27;45418;-88
2021/11/14 09:15:41;;;;;;;;;4.75;4.25;;;;;22.73;100.00;101456.06;5106002;27;45788;-85
2021/11/14 09:18:07;;;;;;;;;10.00;6.00;;;;;22.76;100.00;101468.38;5138417;27;48133;-88
2021/11/14 09:20:32;;;;;;;;;10.25;6.25;;;;;22.62;100.00;101460.91;5104101;27;45515;-89
2021/11/14 09:22:58;;;;;;;;;13.75;9.00;;;;;22.52;100.00;101460.19;5122583;27;45211;-91
2021/11/14 09:25:25;;;;;;;;;15.75;10.25;;;;;22.68;100.00;101471.00;5098918;27;45469;-90
2021/11/14 09:27:51;;;;;;;;;5.00;5.00;;;;;22.46;100.00;101469.78;5116173;27;46415;-88
2021/11/14 09:30:18;;;;;;;;;10.75;9.25;;;;;22.52;100.00;101468.28;5121963;27;45507;-88
2021/11/14 09:32:44;;;;;;;;;7.50;6.00;;;;;22.44;100.00;101465.56;5129785;27;45463;-89
2021/11/14 09:35:11;;;;;;;;;12.50;8.50;;;;;22.39;100.00;101471.44;5138998;27;45242;-92
2021/11/14 09:37:38;;;;;;;;;8.75;8.25;;;;;22.47;100.00;101470.63;5128194;27;46168;-89
2021/11/14 09:40:05;;;;;;;;;10.75;8.00;;;;;22.78;100.00;101477.13;5122731;27;45385;-89
2021/11/14 09:42:31;;;;;;;;;7.50;5.75;;;;;23.17;100.00;101455.78;5112153;27;45226;-90
2021/11/14 09:44:59;;;;;;;;;9.00;7.00;;;;;23.25;100.00;101463.03;5110984;27;45380;-89
2021/11/14 09:47:24;;;;;;;;;7.25;6.00;;;;;23.75;100.00;101466.41;5105643;27;46559;-89
2021/11/14 09:49:50;;;;;;;;;5.25;5.25;;;;;23.91;100.00;101472.75;5116273;27;45397;-91
2021/11/14 09:52:16;;;;;;;;;8.75;7.00;;;;;23.73;100.00;101472.97;5110920;27;45411;-89
2021/11/14 09:54:42;;;;;;;;;7.00;7.00;;;;;23.63;100.00;101461.53;5120433;27;45610;-91
2021/11/14 09:57:09;;;;;;;;;7.00;5.50;;;;;23.66;100.00;101466.59;5128973;27;45247;-92
2021/11/14 09:59:35;;;;;;;;;8.00;6.50;;;;;23.59;100.00;101479.03;5140367;27;44769;-93
2021/11/14 10:02:03;;;;;;;;;7.75;6.75;;;;;23.59;100.00;101473.66;5126120;27;44778;-89
2021/11/14 10:04:30;;;;;;;;;16.50;9.75;;;;;23.44;100.00;101476.19;5153815;27;44919;-88
2021/11/14 10:07:06;;;;;;;;;8.25;6.50;;;;;23.25;100.00;101487.28;5132893;27;45375;-87
2021/11/14 10:09:44;;;;;;;;;8.00;7.00;;;;;23.20;100.00;101482.41;5116191;27;45047;-91
2021/11/14 10:12:15;;;;;;;;;12.50;7.75;;;;;23.09;100.00;101483.59;5127729;27;46000;-90
2021/11/14 10:14:42;;;;;;;;;7.00;7.00;;;;;22.93;100.00;101480.88;5144679;27;44849;-87
2021/11/14 10:17:19;;;;;;;;;14.25;7.75;;;;;22.92;100.00;101479.19;5147795;27;45527;-89
2021/11/14 10:19:56;;;;;;;;;8.75;7.00;;;;;22.79;100.00;101483.34;5133165;27;44859;-87
2021/11/14 10:22:21;;;;;;;;;10.75;9.25;;;;;22.83;100.00;101482.03;5124277;27;45425;-89
2021/11/14 10:24:47;;;;;;;;;14.50;7.25;;;;;22.88;100.00;101475.13;5122411;27;45526;-88
2021/11/14 10:27:13;;;;;;;;;11.25;9.00;;;;;22.89;100.00;101484.91;5117249;27;45435;-88
2021/11/14 10:29:53;;;;;;;;;10.75;8.50;;;;;22.86;100.00;101460.13;5121848;27;45544;-88
2021/11/14 10:32:20;;;;;;;;;13.50;11.50;;;;;22.76;100.00;101479.16;5119926;27;45270;-88
2021/11/14 10:34:51;;;;;;;;;11.00;8.50;;;;;22.83;100.00;101479.34;5116197;27;45263;-88
2021/11/14 10:37:21;;;;;;;;;15.50;11.25;;;;;22.83;100.00;101479.34;5108698;27;46933;-88
2021/11/14 10:39:55;;;;;;;;;14.50;11.75;;;;;22.91;100.00;101480.19;5102465;27;46001;-90
2021/11/14 10:42:23;;;;;;;;;16.25;14.50;;;;;22.91;100.00;101468.56;5101014;27;45350;-86
2021/11/14 10:44:51;;;;;;;;;14.00;14.00;;;;;23.00;100.00;101475.66;5101387;27;45477;-88
2021/11/14 10:47:22;;;;;;;;;14.00;10.75;;;;;23.06;100.00;101470.44;5121537;27;47342;-88
2021/11/14 10:50:00;;;;;;;;;13.50;10.50;;;;;22.98;100.00;101483.91;5103745;27;45529;-89
2021/11/14 10:52:28;;;;;;;;;13.00;10.25;;;;;22.86;100.00;101478.97;5123401;27;45432;-88
2021/11/14 10:55:19;;;;;;;;;13.00;12.50;;;;;23.01;100.00;101480.88;5117893;27;45320;-89
2021/11/14 10:57:45;;;;;;;;;15.50;13.00;;;;;22.63;100.00;101471.50;5098976;27;47386;-89
2021/11/14 11:00:13;;;;;;;;;18.00;14.50;;;;;22.59;100.00;101480.91;5118398;27;45455;-88
2021/11/14 11:02:42;;;;;;;;;19.75;13.75;;;;;22.62;100.00;101490.50;5120734;27;45414;-88
2021/11/14 11:05:12;;;;;;;;;19.00;16.00;;;;;22.56;100.00;101493.88;5120914;27;45704;-89
2021/11/14 11:07:40;;;;;;;;;21.00;17.50;;;;;22.46;100.00;101493.16;5108381;27;45412;-88
2021/11/14 11:10:06;;;;;;;;;29.75;20.75;;;;;22.29;100.00;101474.25;5113356;27;45148;-88